createdAt,value
2017-08-26T00:00:30.984Z,7.93
2017-08-26T00:03:04.408Z,6.73
2017-08-26T00:05:32.044Z,7.03
2017-08-26T00:07:59.495Z,6.10
2017-08-26T00:10:26.919Z,7.60
2017-08-26T00:12:54.340Z,8.00
2017-08-26T00:15:21.772Z,6.83
2017-08-26T00:17:49.220Z,6.80
2017-08-26T00:20:16.778Z,7.57
2017-08-26T00:22:44.241Z,6.67
2017-08-26T00:25:11.682Z,8.03
2017-08-26T00:27:39.101Z,7.70
2017-08-26T00:30:06.537Z,7.40
2017-08-26T00:32:33.969Z,6.37
2017-08-26T00:35:01.515Z,7.30
2017-08-26T00:37:28.950Z,8.07
2017-08-26T00:39:56.428Z,7.83
2017-08-26T00:42:23.853Z,8.20
2017-08-26T00:44:51.337Z,7.60
2017-08-26T00:47:18.787Z,7.20
2017-08-26T00:49:46.242Z,7.97
2017-08-26T00:52:13.745Z,6.47
2017-08-26T00:54:41.178Z,7.17
2017-08-26T00:57:08.796Z,6.70
2017-08-26T00:59:36.381Z,7.90
2017-08-26T01:02:03.817Z,7.40
2017-08-26T01:04:31.295Z,6.50
2017-08-26T01:07:04.272Z,5.83
2017-08-26T01:09:31.744Z,5.60
2017-08-26T01:11:59.193Z,6.23
2017-08-26T01:14:26.825Z,6.10
2017-08-26T01:16:54.408Z,6.90
2017-08-26T01:19:21.868Z,6.73
2017-08-26T01:21:49.306Z,6.80
2017-08-26T01:24:16.730Z,6.80
2017-08-26T01:26:44.236Z,7.53
2017-08-26T01:29:11.693Z,7.33
2017-08-26T01:31:39.471Z,6.83
2017-08-26T01:34:07.097Z,8.30
2017-08-26T01:36:35.388Z,8.20
2017-08-26T01:39:02.972Z,8.33
2017-08-26T01:41:30.512Z,7.40
2017-08-26T01:43:58.273Z,7.20
2017-08-26T01:46:25.713Z,7.50
2017-08-26T01:48:53.185Z,6.57
2017-08-26T01:51:20.608Z,6.87
2017-08-26T01:53:48.101Z,6.80
2017-08-26T01:56:15.537Z,7.20
2017-08-26T01:58:42.956Z,7.37
2017-08-26T02:01:10.467Z,7.77
2017-08-26T02:03:37.925Z,6.57
2017-08-26T02:06:05.578Z,6.20
2017-08-26T02:08:33.146Z,6.33
2017-08-26T02:11:00.797Z,5.80
2017-08-26T02:13:28.271Z,5.83
2017-08-26T02:15:55.710Z,6.93
2017-08-26T02:18:23.181Z,7.63
2017-08-26T02:20:50.743Z,7.07
2017-08-26T02:23:18.188Z,6.90
2017-08-26T02:25:45.696Z,11.20
2017-08-26T02:28:13.298Z,7.10
2017-08-26T02:30:40.763Z,6.27
2017-08-26T02:33:08.326Z,6.10
2017-08-26T02:35:37.014Z,7.07
2017-08-26T02:38:04.452Z,6.80
2017-08-26T02:40:31.925Z,6.40
2017-08-26T02:42:59.378Z,6.00
2017-08-26T02:45:26.838Z,6.67
2017-08-26T02:47:54.274Z,6.70
2017-08-26T02:50:21.741Z,6.27
2017-08-26T02:52:49.169Z,6.93
2017-08-26T02:55:16.657Z,6.17
2017-08-26T02:57:44.085Z,7.50
2017-08-26T03:00:11.509Z,6.60
2017-08-26T03:02:38.946Z,6.50
2017-08-26T03:05:06.379Z,6.83
2017-08-26T03:07:33.937Z,6.03
2017-08-26T03:10:01.388Z,6.17
2017-08-26T03:12:28.816Z,8.03
2017-08-26T03:14:56.313Z,7.33
2017-08-26T03:17:23.764Z,6.10
2017-08-26T03:19:51.189Z,6.47
2017-08-26T03:22:18.630Z,6.43
2017-08-26T03:24:46.132Z,5.83
2017-08-26T03:27:13.578Z,6.70
2017-08-26T03:29:41.041Z,5.90
2017-08-26T03:32:08.465Z,6.60
2017-08-26T03:34:35.953Z,6.90
2017-08-26T03:37:03.412Z,7.47
2017-08-26T03:39:30.838Z,6.80
2017-08-26T03:41:58.322Z,7.60
2017-08-26T03:44:25.753Z,7.63
2017-08-26T03:46:53.177Z,6.90
2017-08-26T03:49:20.697Z,6.57
2017-08-26T03:51:48.324Z,7.50
2017-08-26T03:54:16.071Z,6.00
2017-08-26T03:56:43.684Z,7.23
2017-08-26T03:59:11.137Z,7.10
2017-08-26T04:01:38.549Z,8.80
2017-08-26T04:04:06.049Z,7.60
2017-08-26T04:06:33.478Z,8.20
2017-08-26T04:09:00.908Z,6.83
2017-08-26T04:11:28.333Z,7.00
2017-08-26T04:13:55.775Z,5.50
2017-08-26T04:16:23.257Z,6.93
2017-08-26T04:18:50.794Z,7.13
2017-08-26T04:21:18.242Z,7.67
2017-08-26T04:23:45.705Z,7.67
2017-08-26T04:26:13.468Z,7.80
2017-08-26T04:28:41.220Z,6.67
2017-08-26T04:31:08.672Z,6.63
2017-08-26T04:33:36.145Z,6.00
2017-08-26T04:36:03.621Z,8.50
2017-08-26T04:38:31.169Z,11.47
2017-08-26T04:40:58.818Z,18.03
2017-08-26T04:43:26.285Z,16.87
2017-08-26T04:45:53.899Z,20.00
2017-08-26T04:48:21.402Z,20.17
2017-08-26T04:50:48.947Z,20.33
2017-08-26T04:53:16.572Z,18.90
2017-08-26T04:55:44.106Z,21.13
2017-08-26T04:58:11.523Z,20.73
2017-08-26T05:00:38.994Z,18.93
2017-08-26T05:03:06.533Z,19.07
2017-08-26T05:05:34.180Z,18.93
2017-08-26T05:08:01.761Z,17.67
2017-08-26T05:10:29.213Z,17.37
2017-08-26T05:12:56.642Z,18.73
2017-08-26T05:15:24.128Z,19.23
2017-08-26T05:17:51.757Z,19.50
2017-08-26T05:20:19.217Z,16.23
2017-08-26T05:22:46.797Z,17.87
2017-08-26T05:25:14.560Z,19.23
2017-08-26T05:27:42.308Z,20.10
2017-08-26T05:30:09.740Z,19.80
2017-08-26T05:32:37.174Z,18.43
2017-08-26T05:35:04.605Z,18.90
2017-08-26T05:37:32.144Z,20.43
2017-08-26T05:39:59.601Z,20.30
2017-08-26T05:42:27.066Z,20.70
2017-08-26T05:44:54.521Z,21.33
2017-08-26T05:47:22.156Z,18.67
2017-08-26T05:49:49.639Z,16.53
2017-08-26T05:52:17.113Z,20.53
2017-08-26T05:54:44.624Z,20.67
2017-08-26T05:57:12.059Z,20.73
2017-08-26T05:59:39.485Z,18.43
2017-08-26T06:02:06.926Z,19.43
2017-08-26T06:04:34.485Z,20.90
2017-08-26T06:07:02.128Z,18.20
2017-08-26T06:09:29.693Z,18.87
2017-08-26T06:11:57.142Z,17.83
2017-08-26T06:14:24.572Z,17.20
2017-08-26T06:16:52.065Z,20.20
2017-08-26T06:19:19.495Z,21.40
2017-08-26T06:21:47.108Z,20.60
2017-08-26T06:24:14.741Z,19.40
2017-08-26T06:29:16.412Z,19.53
2017-08-26T06:31:44.069Z,18.13
2017-08-26T06:34:11.504Z,19.53
2017-08-26T06:36:39.009Z,21.27
2017-08-26T06:39:06.453Z,21.20
2017-08-26T06:41:34.007Z,19.03
2017-08-26T06:44:01.581Z,21.30
2017-08-26T06:46:29.216Z,20.33
2017-08-26T06:48:56.645Z,18.67
2017-08-26T06:51:24.140Z,20.27
2017-08-26T06:53:51.897Z,19.40
2017-08-26T06:56:19.356Z,17.93
2017-08-26T06:58:47.112Z,18.53
2017-08-26T07:01:14.566Z,17.47
2017-08-26T07:03:42.005Z,16.07
2017-08-26T07:06:09.496Z,16.30
2017-08-26T07:08:37.115Z,17.83
2017-08-26T07:11:04.621Z,17.37
2017-08-26T07:13:32.078Z,16.47
2017-08-26T07:15:59.504Z,16.17
2017-08-26T07:18:27.076Z,15.50
2017-08-26T07:20:54.517Z,16.70
2017-08-26T07:23:21.980Z,18.13
2017-08-26T07:25:50.362Z,18.33
2017-08-26T07:28:17.993Z,18.03
2017-08-26T07:30:45.490Z,14.50
2017-08-26T07:33:13.037Z,14.00
2017-08-26T07:35:40.497Z,15.30
2017-08-26T07:38:08.260Z,13.77
2017-08-26T07:40:35.720Z,14.23
2017-08-26T07:43:03.176Z,16.53
2017-08-26T07:45:30.605Z,16.80
2017-08-26T07:47:58.043Z,14.70
2017-08-26T07:50:25.537Z,14.37
2017-08-26T07:52:53.176Z,16.40
2017-08-26T07:55:20.692Z,15.73
2017-08-26T07:57:48.220Z,15.83
2017-08-26T08:00:15.669Z,17.17
2017-08-26T08:02:43.434Z,17.30
2017-08-26T08:05:10.880Z,15.53
2017-08-26T08:07:38.484Z,15.40
2017-08-26T08:10:06.109Z,17.97
2017-08-26T08:12:33.572Z,17.40
2017-08-26T08:15:01.198Z,17.47
2017-08-26T08:17:28.784Z,18.43
2017-08-26T08:19:56.416Z,18.13
2017-08-26T08:22:23.928Z,17.53
2017-08-26T08:24:51.365Z,16.73
2017-08-26T08:27:18.912Z,16.47
2017-08-26T08:29:46.341Z,17.70
2017-08-26T08:32:13.829Z,17.10
2017-08-26T08:34:41.257Z,17.70
2017-08-26T08:37:08.695Z,19.40
2017-08-26T08:39:36.202Z,18.20
2017-08-26T08:42:03.840Z,16.73
2017-08-26T08:44:31.769Z,16.17
2017-08-26T08:46:59.484Z,17.43
2017-08-26T08:49:26.925Z,17.13
2017-08-26T08:51:54.405Z,14.30
2017-08-26T08:54:21.861Z,16.43
2017-08-26T08:56:49.289Z,16.23
2017-08-26T08:59:16.774Z,15.73
2017-08-26T09:01:44.225Z,15.63
2017-08-26T09:04:11.668Z,16.50
2017-08-26T09:06:39.142Z,14.93
2017-08-26T09:09:06.581Z,15.00
2017-08-26T09:11:34.058Z,14.50
2017-08-26T09:14:01.698Z,12.03
2017-08-26T09:16:29.148Z,11.80
2017-08-26T09:18:56.600Z,12.67
2017-08-26T09:21:24.053Z,13.80
2017-08-26T09:23:51.664Z,12.43
2017-08-26T09:26:19.092Z,11.50
2017-08-26T09:28:46.533Z,11.77
2017-08-26T09:31:13.968Z,9.73
2017-08-26T09:33:41.461Z,8.70
2017-08-26T09:36:08.896Z,10.93
2017-08-26T09:38:36.381Z,9.07
2017-08-26T09:41:04.013Z,8.83
2017-08-26T09:43:31.610Z,8.17
2017-08-26T09:45:59.045Z,8.70
2017-08-26T09:48:26.477Z,8.67
2017-08-26T09:50:53.929Z,8.43
2017-08-26T09:53:21.393Z,8.50
2017-08-26T09:55:48.982Z,8.60
2017-08-26T09:58:16.526Z,9.23
2017-08-26T10:00:44.014Z,8.53
2017-08-26T10:03:11.552Z,7.03
2017-08-26T10:05:39.001Z,9.40
2017-08-26T10:08:06.439Z,7.30
2017-08-26T10:10:33.920Z,6.60
2017-08-26T10:13:01.338Z,6.10
2017-08-26T10:15:28.794Z,7.23
2017-08-26T10:17:56.289Z,6.87
2017-08-26T10:20:23.721Z,7.80
2017-08-26T10:22:51.196Z,7.03
2017-08-26T10:25:18.660Z,8.23
2017-08-26T10:27:46.112Z,7.77
2017-08-26T10:30:13.550Z,7.23
2017-08-26T10:32:40.977Z,7.60
2017-08-26T10:35:08.400Z,7.40
2017-08-26T10:37:35.837Z,6.80
2017-08-26T10:40:03.263Z,7.70
2017-08-26T10:42:30.760Z,6.93
2017-08-26T10:44:58.197Z,7.60
2017-08-26T10:47:25.636Z,6.80
2017-08-26T10:49:53.133Z,6.53
2017-08-26T10:52:20.566Z,7.00
2017-08-26T10:54:48.135Z,6.60
2017-08-26T10:57:15.916Z,7.10
2017-08-26T10:59:43.533Z,7.80
2017-08-26T11:02:11.032Z,6.30
2017-08-26T11:04:38.462Z,7.50
2017-08-26T11:07:05.936Z,7.60
2017-08-26T11:09:33.388Z,7.20
2017-08-26T11:12:00.943Z,7.33
2017-08-26T11:14:28.364Z,7.53
2017-08-26T11:16:55.860Z,6.90
2017-08-26T11:19:23.582Z,8.07
2017-08-26T11:21:51.581Z,7.97
2017-08-26T11:24:19.825Z,8.57
2017-08-26T11:26:47.455Z,8.57
2017-08-26T11:29:14.993Z,8.03
2017-08-26T11:31:42.608Z,7.40
2017-08-26T11:34:11.707Z,6.87
2017-08-26T11:36:39.190Z,7.47
2017-08-26T11:39:06.641Z,6.90
2017-08-26T11:41:34.068Z,7.50
2017-08-26T11:44:01.561Z,7.37
2017-08-26T11:46:29.002Z,7.07
2017-08-26T11:48:56.431Z,7.23
2017-08-26T11:51:23.928Z,7.40
2017-08-26T11:53:51.371Z,7.23
2017-08-26T11:56:18.808Z,6.70
2017-08-26T11:58:46.237Z,8.33
2017-08-26T12:01:13.757Z,7.47
2017-08-26T12:03:41.219Z,6.80
2017-08-26T12:06:08.660Z,7.80
2017-08-26T12:08:36.084Z,8.47
2017-08-26T12:11:03.578Z,7.20
2017-08-26T12:13:31.345Z,7.67
2017-08-26T12:15:58.876Z,7.70
2017-08-26T12:18:26.469Z,8.50
2017-08-26T12:20:54.029Z,7.30
2017-08-26T12:23:21.488Z,8.30
2017-08-26T12:25:48.941Z,8.10
2017-08-26T12:28:16.383Z,8.20
2017-08-26T12:30:43.819Z,7.80
2017-08-26T12:33:11.295Z,7.97
2017-08-26T12:35:38.729Z,7.93
2017-08-26T12:38:06.148Z,7.07
2017-08-26T12:40:33.698Z,8.00
2017-08-26T12:43:01.288Z,7.90
2017-08-26T12:45:28.880Z,8.20
2017-08-26T12:47:56.338Z,7.17
2017-08-26T12:50:23.797Z,6.80
2017-08-26T12:52:51.220Z,7.17
2017-08-26T12:55:18.648Z,7.97
2017-08-26T12:57:46.073Z,7.40
2017-08-26T13:00:13.621Z,7.60
2017-08-26T13:02:41.041Z,7.17
2017-08-26T13:05:08.465Z,8.13
2017-08-26T13:07:36.001Z,7.70
2017-08-26T13:10:03.444Z,7.47
2017-08-26T13:12:30.913Z,8.37
2017-08-26T13:14:58.660Z,7.77
2017-08-26T13:17:26.127Z,8.67
2017-08-26T13:19:53.602Z,7.20
2017-08-26T13:22:21.137Z,8.10
2017-08-26T14:19:31.260Z,9.13
2017-08-26T14:21:58.700Z,8.13
2017-08-26T14:27:32.000Z,6.97
2017-08-26T14:29:59.446Z,8.10
2017-08-26T14:32:26.852Z,8.57
2017-08-26T14:34:54.276Z,9.20
2017-08-26T14:37:21.692Z,8.30
2017-08-26T14:39:49.292Z,8.17
2017-08-26T14:42:17.672Z,8.00
2017-08-26T14:44:45.120Z,8.30
2017-08-26T14:47:12.558Z,8.87
2017-08-26T14:49:40.041Z,8.00
2017-08-26T14:52:07.659Z,9.50
2017-08-26T14:54:35.144Z,9.20
2017-08-26T14:57:03.622Z,8.80
2017-08-26T14:59:31.033Z,8.50
2017-08-26T15:01:58.456Z,9.07
2017-08-26T15:04:25.868Z,8.67
2017-08-26T15:06:53.453Z,8.00
2017-08-26T15:09:20.921Z,9.00
2017-08-26T15:11:48.565Z,8.47
2017-08-26T15:14:15.991Z,7.77
2017-08-26T15:16:43.495Z,8.33
2017-08-26T15:19:11.249Z,8.33
2017-08-26T15:21:38.801Z,9.07
2017-08-26T15:24:06.221Z,8.80
2017-08-26T15:26:33.644Z,8.57
2017-08-26T15:29:01.068Z,7.93
2017-08-26T15:31:28.517Z,9.10
2017-08-26T15:33:56.099Z,8.43
2017-08-26T15:36:23.729Z,8.60
2017-08-26T15:38:51.218Z,10.33
2017-08-26T15:41:18.765Z,9.83
2017-08-26T15:43:46.220Z,8.80
2017-08-26T15:46:13.677Z,9.20
2017-08-26T15:48:41.132Z,11.90
2017-08-26T15:51:08.771Z,10.57
2017-08-26T15:53:36.353Z,10.57
2017-08-26T15:56:03.984Z,10.80
2017-08-26T15:58:31.561Z,9.40
2017-08-26T16:00:59.033Z,13.50
2017-08-26T16:03:26.761Z,10.77
2017-08-26T16:05:54.195Z,9.43
2017-08-26T16:08:21.712Z,8.90
2017-08-26T16:10:49.160Z,8.60
2017-08-26T16:13:16.616Z,9.20
2017-08-26T16:15:44.080Z,9.93
2017-08-26T16:18:11.523Z,13.13
2017-08-26T16:20:38.944Z,10.37
2017-08-26T16:23:06.376Z,9.67
2017-08-26T16:25:33.804Z,10.33
2017-08-26T16:28:01.355Z,9.97
2017-08-26T16:30:28.813Z,9.27
2017-08-26T16:32:57.104Z,10.07
2017-08-26T16:35:24.962Z,9.73
2017-08-26T16:37:52.383Z,9.60
2017-08-26T16:40:19.811Z,10.47
2017-08-26T16:42:47.242Z,9.13
2017-08-26T16:45:14.665Z,9.70
2017-08-26T16:47:42.227Z,9.40
2017-08-26T16:50:09.688Z,10.27
2017-08-26T16:52:37.116Z,9.67
2017-08-26T16:55:04.557Z,10.87
2017-08-26T16:57:31.978Z,9.30
2017-08-26T16:59:59.522Z,10.00
2017-08-26T17:02:26.952Z,9.83
2017-08-26T17:04:54.426Z,10.80
2017-08-26T17:07:21.864Z,10.17
2017-08-26T17:09:49.287Z,10.00
2017-08-26T17:12:16.843Z,10.43
2017-08-26T17:14:44.273Z,9.83
2017-08-26T17:17:12.012Z,11.17
2017-08-26T17:19:39.452Z,10.73
2017-08-26T17:22:06.922Z,9.63
2017-08-26T17:24:34.356Z,9.73
2017-08-26T17:27:01.869Z,11.77
2017-08-26T17:29:29.477Z,11.33
2017-08-26T17:31:56.956Z,10.77
2017-08-26T17:34:24.433Z,10.47
2017-08-26T17:36:51.876Z,11.27
2017-08-26T17:39:19.308Z,10.60
2017-08-26T17:41:46.880Z,10.10
2017-08-26T17:44:14.532Z,10.50
2017-08-26T17:46:42.334Z,10.80
2017-08-26T17:49:09.783Z,10.80
2017-08-26T17:51:37.341Z,11.07
2017-08-26T17:54:04.788Z,10.13
2017-08-26T17:56:32.543Z,11.20
2017-08-26T17:59:00.190Z,10.73
2017-08-26T18:01:27.668Z,11.57
2017-08-26T18:03:55.238Z,12.27
2017-08-26T18:06:22.860Z,11.40
2017-08-26T18:08:50.299Z,11.60
2017-08-26T18:11:17.893Z,13.20
2017-08-26T18:13:45.332Z,12.43
2017-08-26T18:16:12.780Z,12.10
2017-08-26T18:18:40.217Z,11.43
2017-08-26T18:21:07.764Z,11.60
2017-08-26T18:23:35.395Z,12.20
2017-08-26T18:26:02.857Z,11.37
2017-08-26T18:28:30.398Z,12.17
2017-08-26T18:30:58.049Z,11.70
2017-08-26T18:33:25.492Z,11.90
2017-08-26T18:35:53.073Z,11.90
2017-08-26T18:38:20.496Z,11.40
2017-08-26T18:40:47.981Z,11.67
2017-08-26T18:43:15.412Z,11.97
2017-08-26T18:45:42.844Z,12.27
2017-08-26T18:48:10.360Z,11.07
2017-08-26T18:50:37.993Z,11.00
2017-08-26T18:53:05.423Z,9.93
2017-08-26T18:55:33.028Z,12.77
2017-08-26T18:58:00.496Z,10.37
2017-08-26T19:00:28.244Z,10.23
2017-08-26T19:02:55.882Z,11.23
2017-08-26T19:05:23.559Z,11.30
2017-08-26T19:07:51.134Z,11.93
2017-08-26T19:10:18.680Z,10.67
2017-08-26T19:12:46.136Z,12.10
2017-08-26T19:15:13.606Z,10.57
2017-08-26T19:17:41.052Z,10.50
2017-08-26T19:20:08.493Z,11.37
2017-08-26T19:22:35.929Z,10.20
2017-08-26T19:25:03.420Z,11.53
2017-08-26T19:27:30.887Z,11.50
2017-08-26T19:29:58.336Z,12.50
2017-08-26T19:32:25.801Z,12.27
2017-08-26T19:34:53.563Z,11.23
2017-08-26T19:37:21.009Z,11.00
2017-08-26T19:39:48.444Z,11.10
2017-08-26T19:42:15.889Z,11.03
2017-08-26T19:44:43.345Z,10.87
2017-08-26T19:47:10.784Z,10.20
2017-08-26T19:49:38.217Z,10.20
2017-08-26T19:52:05.656Z,11.10
2017-08-26T19:54:33.200Z,10.30
2017-08-26T19:57:00.957Z,10.03
2017-08-26T19:59:28.431Z,11.40
2017-08-26T20:01:55.893Z,10.37
2017-08-26T20:04:23.644Z,11.47
2017-08-26T20:06:51.108Z,10.67
2017-08-26T20:09:18.741Z,11.30
2017-08-26T20:11:46.319Z,9.80
2017-08-26T20:14:13.758Z,10.80
2017-08-26T20:16:41.196Z,10.90
2017-08-26T20:19:08.632Z,11.53
2017-08-26T20:21:36.150Z,11.07
2017-08-26T20:24:03.603Z,11.07
2017-08-26T20:26:31.065Z,12.57
2017-08-26T20:28:58.517Z,11.50
2017-08-26T20:31:25.972Z,12.23
2017-08-26T20:33:53.600Z,11.17
2017-08-26T20:36:21.126Z,10.30
2017-08-26T20:38:48.573Z,11.17
2017-08-26T20:41:16.005Z,11.97
2017-08-26T20:43:43.577Z,11.90
2017-08-26T20:46:11.322Z,11.73
2017-08-26T20:48:38.983Z,11.43
2017-08-26T20:51:06.433Z,12.10
2017-08-26T20:53:33.905Z,10.93
2017-08-26T20:56:01.362Z,10.80
2017-08-26T20:58:28.805Z,11.40
2017-08-26T21:00:56.271Z,11.90
2017-08-26T21:03:23.741Z,11.67
2017-08-26T21:05:51.191Z,12.67
2017-08-26T21:08:18.736Z,12.20
2017-08-26T21:10:46.164Z,13.13
2017-08-26T21:13:13.610Z,11.70
2017-08-26T21:15:41.115Z,13.13
2017-08-26T21:18:08.889Z,11.47
2017-08-26T21:20:36.504Z,12.60
2017-08-26T21:23:04.089Z,12.17
2017-08-26T21:25:31.523Z,13.07
2017-08-26T21:27:58.993Z,11.80
2017-08-26T21:30:26.420Z,11.90
2017-08-26T21:32:53.858Z,12.40
2017-08-26T21:35:21.384Z,13.70
2017-08-26T21:37:49.020Z,14.33
2017-08-26T21:40:16.488Z,12.87
2017-08-26T21:42:43.917Z,13.30
2017-08-26T21:45:11.504Z,14.00
2017-08-26T21:47:38.974Z,13.67
2017-08-26T21:50:06.716Z,13.70
2017-08-26T21:52:34.149Z,13.90
2017-08-26T21:55:01.633Z,13.10
2017-08-26T21:57:29.086Z,13.93
2017-08-26T21:59:56.540Z,13.20
2017-08-26T22:02:23.976Z,12.57
2017-08-26T22:04:51.416Z,12.17
2017-08-26T22:07:18.848Z,12.53
2017-08-26T22:09:46.362Z,13.30
2017-08-26T22:12:13.796Z,13.30
2017-08-26T22:14:41.233Z,11.93
2017-08-26T22:17:08.737Z,12.57
2017-08-26T22:19:36.498Z,12.77
2017-08-26T22:22:03.928Z,12.13
2017-08-26T22:24:31.363Z,13.33
2017-08-26T22:26:58.868Z,13.23
2017-08-26T22:29:26.511Z,13.10
2017-08-26T22:31:54.024Z,13.13
2017-08-26T22:34:21.465Z,15.10
2017-08-26T22:36:49.000Z,14.60
2017-08-26T22:39:16.436Z,13.73
2017-08-26T22:41:43.869Z,15.03
2017-08-26T22:44:11.331Z,14.97
2017-08-26T22:46:38.749Z,14.63
2017-08-26T22:49:06.200Z,13.90
2017-08-26T22:51:33.632Z,13.13
2017-08-26T22:54:01.196Z,14.17
2017-08-26T22:56:28.635Z,13.57
2017-08-26T22:58:56.072Z,13.00
2017-08-26T23:01:23.560Z,14.77
2017-08-26T23:03:50.996Z,14.90
2017-08-26T23:06:18.476Z,14.03
2017-08-26T23:08:45.905Z,14.10
2017-08-26T23:11:13.394Z,15.00
2017-08-26T23:13:41.028Z,13.93
2017-08-26T23:16:08.610Z,13.37
2017-08-26T23:18:36.246Z,13.27
2017-08-26T23:21:03.742Z,14.23
2017-08-26T23:23:31.192Z,14.73
2017-08-26T23:25:58.748Z,15.00
2017-08-26T23:28:26.177Z,14.33
2017-08-26T23:30:53.659Z,14.67
2017-08-26T23:33:21.088Z,13.90
2017-08-26T23:35:48.573Z,14.30
2017-08-26T23:38:16.208Z,14.47
2017-08-26T23:40:43.780Z,14.47
2017-08-26T23:43:11.249Z,13.27
2017-08-26T23:45:38.884Z,14.57
2017-08-26T23:48:06.339Z,15.30
2017-08-26T23:50:33.823Z,13.27
2017-08-26T23:53:01.371Z,13.47
2017-08-26T23:55:28.836Z,14.70
2017-08-26T23:57:56.288Z,14.13
